createdAt,value
2022-09-29T00:03:15.799Z,6.5
2022-09-29T00:13:15.747Z,5.6
2022-09-29T00:23:15.749Z,5.6
2022-09-29T00:33:15.800Z,5.6
2022-09-29T00:43:15.775Z,5.4
2022-09-29T00:53:21.236Z,5.2
2022-09-29T01:03:15.808Z,5.1
2022-09-29T01:13:15.900Z,5.3
2022-09-29T01:23:15.868Z,5.1
2022-09-29T01:33:15.937Z,5.1
2022-09-29T01:43:15.901Z,4.9
2022-09-29T01:53:15.961Z,4.9
2022-09-29T02:03:15.950Z,5.1
2022-09-29T02:13:16.044Z,4.9
2022-09-29T02:23:16.005Z,4.6
2022-09-29T02:33:16.065Z,4.8
2022-09-29T02:43:16.058Z,4.7
2022-09-29T02:53:16.135Z,4.7
2022-09-29T03:13:16.166Z,4.3
2022-09-29T03:23:16.145Z,3.8
2022-09-29T03:33:16.204Z,3.6
2022-09-29T03:53:16.259Z,3.6
2022-09-29T04:03:16.249Z,3.3
2022-09-29T04:33:16.366Z,4.7
2022-09-29T04:43:16.364Z,4.9
2022-09-29T04:53:16.404Z,4.9
2022-09-29T05:03:16.419Z,4.9
2022-09-29T05:13:16.447Z,5.1
2022-09-29T05:23:16.443Z,5.1
2022-09-29T05:33:16.495Z,5.1
2022-09-29T05:43:16.495Z,5.1
2022-09-29T05:53:16.548Z,5.1
2022-09-29T06:03:16.554Z,5.1
2022-09-29T06:13:16.591Z,5.3
2022-09-29T06:23:16.584Z,5.2
2022-09-29T06:33:16.765Z,5.3
2022-09-29T06:43:16.651Z,5.6
2022-09-29T06:53:16.858Z,5.9
2022-09-29T07:03:16.700Z,6.1
2022-09-29T07:23:16.737Z,6.3
2022-09-29T07:33:17.160Z,7
2022-09-29T07:43:16.811Z,7.7
2022-09-29T07:53:16.800Z,8.6
2022-09-29T08:03:16.871Z,8.3
2022-09-29T08:13:16.850Z,8.9
2022-09-29T08:23:16.920Z,9.1
2022-09-29T08:33:16.872Z,10.6
2022-09-29T08:43:27.341Z,9.2
2022-09-29T08:53:25.630Z,10.8
2022-09-29T09:03:17.005Z,13.5
2022-09-29T09:13:16.993Z,14.2
2022-09-29T09:23:17.024Z,11.7
2022-09-29T09:33:26.618Z,13.7
2022-09-29T09:43:17.067Z,15.6
2022-09-29T09:53:17.060Z,15.1
2022-09-29T10:03:17.103Z,14.8
2022-09-29T10:13:17.089Z,15.3
2022-09-29T10:23:17.131Z,13.8
2022-09-29T10:33:17.137Z,13.2
2022-09-29T10:43:17.167Z,15.8
2022-09-29T10:53:17.152Z,13.9
2022-09-29T11:03:17.222Z,15.4
2022-09-29T11:13:17.184Z,14.6
2022-09-29T11:23:17.243Z,15.9
2022-09-29T11:33:17.220Z,20.2
2022-09-29T11:43:17.273Z,18.4
2022-09-29T11:53:17.248Z,17.1
2022-09-29T12:03:17.470Z,16.5
2022-09-29T12:13:17.282Z,15.1
2022-09-29T12:23:17.353Z,19.4
2022-09-29T12:33:17.318Z,21.9
2022-09-29T12:43:17.386Z,17.9
2022-09-29T12:53:17.364Z,19.2
2022-09-29T13:13:17.431Z,15.4
2022-09-29T13:23:17.390Z,14.6
2022-09-29T13:43:17.488Z,13.9
2022-09-29T13:53:17.449Z,13.8
2022-09-29T14:03:17.471Z,13.6
2022-09-29T14:13:17.503Z,13.4
2022-09-29T14:23:17.538Z,13.9
2022-09-29T14:33:17.523Z,13.7
2022-09-29T14:43:17.572Z,13.3
2022-09-29T14:53:17.570Z,14
2022-09-29T15:03:27.626Z,13.8
2022-09-29T15:13:17.601Z,13.4
2022-09-29T15:33:17.667Z,13
2022-09-29T15:53:17.704Z,13.3
2022-09-29T16:03:17.685Z,12.9
2022-09-29T16:13:17.720Z,12.5
2022-09-29T16:23:17.718Z,12.1
2022-09-29T16:33:17.778Z,11.9
2022-09-29T16:43:17.737Z,11.4
2022-09-29T16:53:17.798Z,11.1
2022-09-29T17:03:17.789Z,10.9
2022-09-29T17:23:17.859Z,10.9
2022-09-29T17:33:17.837Z,10.9
2022-09-29T17:43:17.943Z,10.6
2022-09-29T18:03:17.916Z,10.2
2022-09-29T18:13:17.917Z,10.3
2022-09-29T18:33:18.002Z,9.7
2022-09-29T18:43:17.990Z,9.4
2022-09-29T19:03:18.044Z,9.3
2022-09-29T19:23:18.088Z,8.5
2022-09-29T19:33:18.076Z,8.5
2022-09-29T19:43:18.139Z,8.3
2022-09-29T19:53:18.144Z,8.1
2022-09-29T20:13:18.212Z,7.6
2022-09-29T20:33:18.232Z,6.9
2022-09-29T20:43:18.238Z,6.8
2022-09-29T20:53:18.291Z,6.8
2022-09-29T21:13:18.336Z,6.8
2022-09-29T21:43:18.402Z,6.6
2022-09-29T21:53:18.406Z,6.4
2022-09-29T22:23:18.501Z,7
2022-09-29T22:33:18.500Z,7.2
2022-09-29T22:53:18.545Z,6.6
2022-09-29T23:13:18.617Z,5.7
2022-09-29T23:23:18.595Z,5.6
2022-09-29T23:53:18.853Z,4.5
